sensor_id;sensor_type;location;lat;lon;timestamp;temperature;humidity
23815;DHT22;12088;53.078;8.720;2022-12-18T00:00:28;-6.40;99.90
23815;DHT22;12088;53.078;8.720;2022-12-18T00:02:55;-6.40;99.90
23815;DHT22;12088;53.078;8.720;2022-12-18T00:05:20;-6.40;99.90
23815;DHT22;12088;53.078;8.720;2022-12-18T00:07:46;-6.40;99.90
23815;DHT22;12088;53.078;8.720;2022-12-18T00:10:11;-6.40;99.90
23815;DHT22;12088;53.078;8.720;2022-12-18T00:12:36;-6.50;99.90
23815;DHT22;12088;53.078;8.720;2022-12-18T00:15:02;-6.50;99.90
23815;DHT22;12088;53.078;8.720;2022-12-18T00:17:28;-6.50;99.90
23815;DHT22;12088;53.078;8.720;2022-12-18T00:19:53;-6.50;99.90
23815;DHT22;12088;53.078;8.720;2022-12-18T00:22:19;-6.50;99.90
23815;DHT22;12088;53.078;8.720;2022-12-18T00:24:44;-6.40;99.90
23815;DHT22;12088;53.078;8.720;2022-12-18T00:27:10;-6.40;99.90
23815;DHT22;12088;53.078;8.720;2022-12-18T00:29:35;-6.40;99.90
23815;DHT22;12088;53.078;8.720;2022-12-18T00:32:01;-6.50;99.90
23815;DHT22;12088;53.078;8.720;2022-12-18T00:34:26;-6.70;99.90
23815;DHT22;12088;53.078;8.720;2022-12-18T00:36:52;-7.00;99.90
23815;DHT22;12088;53.078;8.720;2022-12-18T00:39:17;-6.90;99.90
23815;DHT22;12088;53.078;8.720;2022-12-18T00:41:43;-6.70;99.90
23815;DHT22;12088;53.078;8.720;2022-12-18T00:44:27;-6.60;99.90
23815;DHT22;12088;53.078;8.720;2022-12-18T00:46:53;-6.60;99.90
23815;DHT22;12088;53.078;8.720;2022-12-18T00:49:19;-6.60;99.90
23815;DHT22;12088;53.078;8.720;2022-12-18T00:51:44;-6.50;99.90
23815;DHT22;12088;53.078;8.720;2022-12-18T00:54:10;-6.50;99.90
23815;DHT22;12088;53.078;8.720;2022-12-18T00:56:37;-6.60;99.90
23815;DHT22;12088;53.078;8.720;2022-12-18T00:59:03;-6.50;99.90
23815;DHT22;12088;53.078;8.720;2022-12-18T01:01:29;-6.50;99.90
23815;DHT22;12088;53.078;8.720;2022-12-18T01:03:55;-6.50;99.90
23815;DHT22;12088;53.078;8.720;2022-12-18T01:06:20;-6.50;99.90
23815;DHT22;12088;53.078;8.720;2022-12-18T01:08:46;-6.50;99.90
23815;DHT22;12088;53.078;8.720;2022-12-18T01:11:14;-6.40;99.90
23815;DHT22;12088;53.078;8.720;2022-12-18T01:13:41;-6.50;99.90
23815;DHT22;12088;53.078;8.720;2022-12-18T01:16:07;-6.40;99.90
23815;DHT22;12088;53.078;8.720;2022-12-18T01:18:32;-6.40;99.90
23815;DHT22;12088;53.078;8.720;2022-12-18T01:20:58;-6.30;99.90
23815;DHT22;12088;53.078;8.720;2022-12-18T01:23:24;-6.40;99.90
23815;DHT22;12088;53.078;8.720;2022-12-18T01:25:49;-6.40;99.90
23815;DHT22;12088;53.078;8.720;2022-12-18T01:28:15;-6.40;99.90
23815;DHT22;12088;53.078;8.720;2022-12-18T01:30:40;-6.40;99.90
23815;DHT22;12088;53.078;8.720;2022-12-18T01:33:06;-6.50;99.90
23815;DHT22;12088;53.078;8.720;2022-12-18T01:35:31;-6.60;99.90
23815;DHT22;12088;53.078;8.720;2022-12-18T01:37:57;-6.70;99.90
23815;DHT22;12088;53.078;8.720;2022-12-18T01:40:22;-6.60;99.90
23815;DHT22;12088;53.078;8.720;2022-12-18T01:42:52;-6.60;99.90
23815;DHT22;12088;53.078;8.720;2022-12-18T01:47:59;-6.90;99.90
23815;DHT22;12088;53.078;8.720;2022-12-18T01:50:38;-7.10;99.90
23815;DHT22;12088;53.078;8.720;2022-12-18T01:53:12;-7.40;99.90
23815;DHT22;12088;53.078;8.720;2022-12-18T01:55:47;-7.50;99.90
23815;DHT22;12088;53.078;8.720;2022-12-18T01:58:14;-7.40;99.90
23815;DHT22;12088;53.078;8.720;2022-12-18T02:00:46;-7.20;99.90
23815;DHT22;12088;53.078;8.720;2022-12-18T02:03:12;-7.00;99.90
23815;DHT22;12088;53.078;8.720;2022-12-18T02:06:06;-6.90;99.90
23815;DHT22;12088;53.078;8.720;2022-12-18T02:08:58;-6.80;99.90
23815;DHT22;12088;53.078;8.720;2022-12-18T02:14:42;-7.00;99.90
23815;DHT22;12088;53.078;8.720;2022-12-18T02:17:19;-6.90;99.90
23815;DHT22;12088;53.078;8.720;2022-12-18T02:23:09;-6.80;99.90
23815;DHT22;12088;53.078;8.720;2022-12-18T02:28:22;-6.90;99.90
23815;DHT22;12088;53.078;8.720;2022-12-18T02:30:50;-6.90;99.90
23815;DHT22;12088;53.078;8.720;2022-12-18T02:33:19;-6.80;99.90
23815;DHT22;12088;53.078;8.720;2022-12-18T02:35:47;-6.70;99.90
23815;DHT22;12088;53.078;8.720;2022-12-18T02:38:14;-6.80;99.90
23815;DHT22;12088;53.078;8.720;2022-12-18T02:40:41;-7.00;99.90
23815;DHT22;12088;53.078;8.720;2022-12-18T02:43:13;-7.20;99.90
23815;DHT22;12088;53.078;8.720;2022-12-18T02:45:53;-7.30;99.90
23815;DHT22;12088;53.078;8.720;2022-12-18T02:48:23;-7.40;99.90
23815;DHT22;12088;53.078;8.720;2022-12-18T02:51:08;-7.30;99.90
23815;DHT22;12088;53.078;8.720;2022-12-18T02:53:45;-7.10;99.90
23815;DHT22;12088;53.078;8.720;2022-12-18T02:56:23;-7.00;99.90
23815;DHT22;12088;53.078;8.720;2022-12-18T02:59:12;-6.90;99.90
23815;DHT22;12088;53.078;8.720;2022-12-18T03:01:47;-6.90;99.90
23815;DHT22;12088;53.078;8.720;2022-12-18T03:04:26;-6.90;99.90
23815;DHT22;12088;53.078;8.720;2022-12-18T03:06:56;-6.90;99.90
23815;DHT22;12088;53.078;8.720;2022-12-18T03:09:29;-6.90;99.90
23815;DHT22;12088;53.078;8.720;2022-12-18T03:12:05;-6.90;99.90
23815;DHT22;12088;53.078;8.720;2022-12-18T03:17:33;-7.00;99.90
23815;DHT22;12088;53.078;8.720;2022-12-18T03:20:03;-6.90;99.90
23815;DHT22;12088;53.078;8.720;2022-12-18T03:22:33;-6.90;99.90
23815;DHT22;12088;53.078;8.720;2022-12-18T03:25:02;-6.90;99.90
23815;DHT22;12088;53.078;8.720;2022-12-18T03:27:29;-7.00;99.90
23815;DHT22;12088;53.078;8.720;2022-12-18T03:30:05;-6.90;99.90
23815;DHT22;12088;53.078;8.720;2022-12-18T03:32:43;-6.90;99.90
23815;DHT22;12088;53.078;8.720;2022-12-18T03:35:12;-6.80;99.90
23815;DHT22;12088;53.078;8.720;2022-12-18T03:37:38;-6.80;99.90
23815;DHT22;12088;53.078;8.720;2022-12-18T03:40:05;-6.80;99.90
23815;DHT22;12088;53.078;8.720;2022-12-18T03:42:49;-6.80;99.90
23815;DHT22;12088;53.078;8.720;2022-12-18T03:45:32;-6.80;99.90
23815;DHT22;12088;53.078;8.720;2022-12-18T03:48:08;-6.80;99.90
23815;DHT22;12088;53.078;8.720;2022-12-18T03:50:53;-6.80;99.90
23815;DHT22;12088;53.078;8.720;2022-12-18T03:53:52;-6.70;99.90
23815;DHT22;12088;53.078;8.720;2022-12-18T03:56:21;-6.70;99.90
23815;DHT22;12088;53.078;8.720;2022-12-18T03:58:48;-6.80;99.90
23815;DHT22;12088;53.078;8.720;2022-12-18T04:01:16;-6.90;99.90
23815;DHT22;12088;53.078;8.720;2022-12-18T04:03:44;-7.00;99.90
23815;DHT22;12088;53.078;8.720;2022-12-18T04:06:11;-7.00;99.90
23815;DHT22;12088;53.078;8.720;2022-12-18T04:08:38;-7.00;99.90
23815;DHT22;12088;53.078;8.720;2022-12-18T04:11:05;-6.90;99.90
23815;DHT22;12088;53.078;8.720;2022-12-18T04:13:38;-6.90;99.90
23815;DHT22;12088;53.078;8.720;2022-12-18T04:16:04;-6.80;99.90
23815;DHT22;12088;53.078;8.720;2022-12-18T04:18:30;-6.70;99.90
23815;DHT22;12088;53.078;8.720;2022-12-18T04:20:56;-6.70;99.90
23815;DHT22;12088;53.078;8.720;2022-12-18T04:23:21;-6.70;99.90
23815;DHT22;12088;53.078;8.720;2022-12-18T04:25:47;-6.80;99.90
23815;DHT22;12088;53.078;8.720;2022-12-18T04:28:13;-6.80;99.90
23815;DHT22;12088;53.078;8.720;2022-12-18T04:30:38;-6.80;99.90
23815;DHT22;12088;53.078;8.720;2022-12-18T04:33:08;-6.70;99.90
23815;DHT22;12088;53.078;8.720;2022-12-18T04:35:33;-6.70;99.90
23815;DHT22;12088;53.078;8.720;2022-12-18T04:37:59;-6.70;99.90
23815;DHT22;12088;53.078;8.720;2022-12-18T04:40:24;-6.80;99.90
23815;DHT22;12088;53.078;8.720;2022-12-18T04:42:50;-6.70;99.90
23815;DHT22;12088;53.078;8.720;2022-12-18T04:45:15;-6.60;99.90
23815;DHT22;12088;53.078;8.720;2022-12-18T04:47:41;-6.60;99.90
23815;DHT22;12088;53.078;8.720;2022-12-18T04:50:06;-6.60;99.90
23815;DHT22;12088;53.078;8.720;2022-12-18T04:52:32;-6.70;99.90
23815;DHT22;12088;53.078;8.720;2022-12-18T04:54:58;-6.80;99.90
23815;DHT22;12088;53.078;8.720;2022-12-18T04:57:23;-6.80;99.90
23815;DHT22;12088;53.078;8.720;2022-12-18T04:59:49;-6.70;99.90
23815;DHT22;12088;53.078;8.720;2022-12-18T05:02:14;-6.70;99.90
23815;DHT22;12088;53.078;8.720;2022-12-18T05:04:40;-6.70;99.90
23815;DHT22;12088;53.078;8.720;2022-12-18T05:07:05;-6.70;99.90
23815;DHT22;12088;53.078;8.720;2022-12-18T05:09:31;-6.60;99.90
23815;DHT22;12088;53.078;8.720;2022-12-18T05:11:57;-6.70;99.90
23815;DHT22;12088;53.078;8.720;2022-12-18T05:14:22;-6.70;99.90
23815;DHT22;12088;53.078;8.720;2022-12-18T05:16:48;-6.80;99.90
23815;DHT22;12088;53.078;8.720;2022-12-18T05:19:13;-6.80;99.90
23815;DHT22;12088;53.078;8.720;2022-12-18T05:21:39;-6.80;99.90
23815;DHT22;12088;53.078;8.720;2022-12-18T05:24:05;-6.90;99.90
23815;DHT22;12088;53.078;8.720;2022-12-18T05:26:31;-6.90;99.90
23815;DHT22;12088;53.078;8.720;2022-12-18T05:28:56;-6.90;99.90
23815;DHT22;12088;53.078;8.720;2022-12-18T05:31:22;-6.90;99.90
23815;DHT22;12088;53.078;8.720;2022-12-18T05:33:48;-6.90;99.90
23815;DHT22;12088;53.078;8.720;2022-12-18T05:36:13;-6.80;99.90
23815;DHT22;12088;53.078;8.720;2022-12-18T05:38:39;-6.90;99.90
23815;DHT22;12088;53.078;8.720;2022-12-18T05:41:06;-6.90;99.90
23815;DHT22;12088;53.078;8.720;2022-12-18T05:43:34;-6.90;99.90
23815;DHT22;12088;53.078;8.720;2022-12-18T05:46:07;-6.90;99.90
23815;DHT22;12088;53.078;8.720;2022-12-18T05:48:33;-6.90;99.90
23815;DHT22;12088;53.078;8.720;2022-12-18T05:51:05;-7.00;99.90
23815;DHT22;12088;53.078;8.720;2022-12-18T05:53:31;-7.10;99.90
23815;DHT22;12088;53.078;8.720;2022-12-18T05:56:00;-7.10;99.90
23815;DHT22;12088;53.078;8.720;2022-12-18T05:58:26;-7.10;99.90
23815;DHT22;12088;53.078;8.720;2022-12-18T06:00:51;-7.10;99.90
23815;DHT22;12088;53.078;8.720;2022-12-18T06:03:17;-7.00;99.90
23815;DHT22;12088;53.078;8.720;2022-12-18T06:05:44;-7.00;99.90
23815;DHT22;12088;53.078;8.720;2022-12-18T06:08:11;-7.00;99.90
23815;DHT22;12088;53.078;8.720;2022-12-18T06:10:37;-7.00;99.90
23815;DHT22;12088;53.078;8.720;2022-12-18T06:13:03;-7.00;99.90
23815;DHT22;12088;53.078;8.720;2022-12-18T06:15:29;-7.00;99.90
23815;DHT22;12088;53.078;8.720;2022-12-18T06:17:54;-7.00;99.90
23815;DHT22;12088;53.078;8.720;2022-12-18T06:20:20;-7.00;99.90
23815;DHT22;12088;53.078;8.720;2022-12-18T06:22:46;-7.00;99.90
23815;DHT22;12088;53.078;8.720;2022-12-18T06:25:11;-7.00;99.90
23815;DHT22;12088;53.078;8.720;2022-12-18T06:27:37;-7.00;99.90
23815;DHT22;12088;53.078;8.720;2022-12-18T06:30:04;-7.10;99.90
23815;DHT22;12088;53.078;8.720;2022-12-18T06:32:29;-7.10;99.90
23815;DHT22;12088;53.078;8.720;2022-12-18T06:34:55;-7.10;99.90
23815;DHT22;12088;53.078;8.720;2022-12-18T06:37:21;-7.20;99.90
23815;DHT22;12088;53.078;8.720;2022-12-18T06:39:50;-7.10;99.90
23815;DHT22;12088;53.078;8.720;2022-12-18T06:42:15;-7.10;99.90
23815;DHT22;12088;53.078;8.720;2022-12-18T06:44:41;-7.10;99.90
23815;DHT22;12088;53.078;8.720;2022-12-18T06:47:06;-7.10;99.90
23815;DHT22;12088;53.078;8.720;2022-12-18T06:49:32;-7.10;99.90
23815;DHT22;12088;53.078;8.720;2022-12-18T06:51:57;-7.10;99.90
23815;DHT22;12088;53.078;8.720;2022-12-18T06:54:23;-7.00;99.90
23815;DHT22;12088;53.078;8.720;2022-12-18T06:56:48;-7.00;99.90
23815;DHT22;12088;53.078;8.720;2022-12-18T06:59:14;-7.00;99.90
23815;DHT22;12088;53.078;8.720;2022-12-18T07:01:40;-7.10;99.90
23815;DHT22;12088;53.078;8.720;2022-12-18T07:04:05;-7.10;99.90
23815;DHT22;12088;53.078;8.720;2022-12-18T07:06:31;-7.10;99.90
23815;DHT22;12088;53.078;8.720;2022-12-18T07:08:56;-7.10;99.90
23815;DHT22;12088;53.078;8.720;2022-12-18T07:11:22;-7.10;99.90
23815;DHT22;12088;53.078;8.720;2022-12-18T07:13:48;-7.10;99.90
23815;DHT22;12088;53.078;8.720;2022-12-18T07:16:16;-7.10;99.90
23815;DHT22;12088;53.078;8.720;2022-12-18T07:18:43;-7.10;99.90
23815;DHT22;12088;53.078;8.720;2022-12-18T07:21:11;-7.10;99.90
23815;DHT22;12088;53.078;8.720;2022-12-18T07:23:38;-7.20;99.90
23815;DHT22;12088;53.078;8.720;2022-12-18T07:26:05;-7.20;99.90
23815;DHT22;12088;53.078;8.720;2022-12-18T07:28:32;-7.20;99.90
23815;DHT22;12088;53.078;8.720;2022-12-18T07:30:58;-7.20;99.90
23815;DHT22;12088;53.078;8.720;2022-12-18T07:33:24;-7.20;99.90
23815;DHT22;12088;53.078;8.720;2022-12-18T07:35:50;-7.20;99.90
23815;DHT22;12088;53.078;8.720;2022-12-18T07:38:15;-7.10;99.90
23815;DHT22;12088;53.078;8.720;2022-12-18T07:40:41;-7.10;99.90
23815;DHT22;12088;53.078;8.720;2022-12-18T07:43:06;-7.10;99.90
23815;DHT22;12088;53.078;8.720;2022-12-18T07:45:32;-7.10;99.90
23815;DHT22;12088;53.078;8.720;2022-12-18T07:47:57;-7.10;99.90
23815;DHT22;12088;53.078;8.720;2022-12-18T07:50:23;-7.00;99.90
23815;DHT22;12088;53.078;8.720;2022-12-18T07:52:49;-7.00;99.90
23815;DHT22;12088;53.078;8.720;2022-12-18T07:55:15;-7.00;99.90
23815;DHT22;12088;53.078;8.720;2022-12-18T07:57:40;-6.90;99.90
23815;DHT22;12088;53.078;8.720;2022-12-18T08:00:06;-6.90;99.90
23815;DHT22;12088;53.078;8.720;2022-12-18T08:02:33;-6.90;99.90
23815;DHT22;12088;53.078;8.720;2022-12-18T08:04:58;-6.80;99.90
23815;DHT22;12088;53.078;8.720;2022-12-18T08:07:24;-6.90;99.90
23815;DHT22;12088;53.078;8.720;2022-12-18T08:09:49;-6.90;99.90
23815;DHT22;12088;53.078;8.720;2022-12-18T08:12:15;-6.80;99.90
23815;DHT22;12088;53.078;8.720;2022-12-18T08:14:40;-6.70;99.90
23815;DHT22;12088;53.078;8.720;2022-12-18T08:17:06;-6.60;99.90
23815;DHT22;12088;53.078;8.720;2022-12-18T08:19:32;-6.50;99.90
23815;DHT22;12088;53.078;8.720;2022-12-18T08:21:57;-6.40;99.90
23815;DHT22;12088;53.078;8.720;2022-12-18T08:24:23;-6.40;99.90
23815;DHT22;12088;53.078;8.720;2022-12-18T08:26:48;-6.30;99.90
23815;DHT22;12088;53.078;8.720;2022-12-18T08:29:15;-6.30;99.90
23815;DHT22;12088;53.078;8.720;2022-12-18T08:31:40;-6.10;99.90
23815;DHT22;12088;53.078;8.720;2022-12-18T08:34:07;-6.10;99.90
23815;DHT22;12088;53.078;8.720;2022-12-18T08:36:33;-5.80;99.90
23815;DHT22;12088;53.078;8.720;2022-12-18T08:38:58;-5.60;99.90
23815;DHT22;12088;53.078;8.720;2022-12-18T08:41:24;-5.40;99.90
23815;DHT22;12088;53.078;8.720;2022-12-18T08:43:49;-4.90;99.90
23815;DHT22;12088;53.078;8.720;2022-12-18T08:46:38;-4.60;99.90
23815;DHT22;12088;53.078;8.720;2022-12-18T08:49:05;-4.20;99.90
23815;DHT22;12088;53.078;8.720;2022-12-18T08:51:31;-4.40;99.90
23815;DHT22;12088;53.078;8.720;2022-12-18T08:53:57;-4.50;99.90
23815;DHT22;12088;53.078;8.720;2022-12-18T08:56:23;-4.60;99.90
23815;DHT22;12088;53.078;8.720;2022-12-18T08:58:53;-4.60;99.90
23815;DHT22;12088;53.078;8.720;2022-12-18T09:01:19;-4.30;99.90
23815;DHT22;12088;53.078;8.720;2022-12-18T09:03:45;-4.10;99.90
23815;DHT22;12088;53.078;8.720;2022-12-18T09:06:14;-4.10;99.90
23815;DHT22;12088;53.078;8.720;2022-12-18T09:08:41;-3.30;99.90
23815;DHT22;12088;53.078;8.720;2022-12-18T09:11:18;-2.50;99.90
23815;DHT22;12088;53.078;8.720;2022-12-18T09:13:44;-1.70;99.90
23815;DHT22;12088;53.078;8.720;2022-12-18T09:16:09;-1.60;99.90
23815;DHT22;12088;53.078;8.720;2022-12-18T09:18:35;-1.20;99.90
23815;DHT22;12088;53.078;8.720;2022-12-18T09:21:17;-0.80;99.90
23815;DHT22;12088;53.078;8.720;2022-12-18T09:23:43;-0.90;99.90
23815;DHT22;12088;53.078;8.720;2022-12-18T09:26:09;-1.30;99.90
23815;DHT22;12088;53.078;8.720;2022-12-18T09:28:35;-2.70;99.90
23815;DHT22;12088;53.078;8.720;2022-12-18T09:31:06;-3.00;99.90
23815;DHT22;12088;53.078;8.720;2022-12-18T09:33:33;-2.90;99.90
23815;DHT22;12088;53.078;8.720;2022-12-18T09:36:01;-3.30;99.90
23815;DHT22;12088;53.078;8.720;2022-12-18T09:38:26;-3.40;99.90
23815;DHT22;12088;53.078;8.720;2022-12-18T09:40:55;-3.40;99.90
23815;DHT22;12088;53.078;8.720;2022-12-18T09:43:37;-3.20;99.90
23815;DHT22;12088;53.078;8.720;2022-12-18T09:46:15;-3.10;99.90
23815;DHT22;12088;53.078;8.720;2022-12-18T09:48:45;-2.90;99.90
23815;DHT22;12088;53.078;8.720;2022-12-18T09:51:15;-2.90;99.90
23815;DHT22;12088;53.078;8.720;2022-12-18T09:53:47;-3.00;99.90
23815;DHT22;12088;53.078;8.720;2022-12-18T09:56:18;-3.20;99.90
23815;DHT22;12088;53.078;8.720;2022-12-18T09:58:59;-3.10;99.90
23815;DHT22;12088;53.078;8.720;2022-12-18T10:01:26;-2.80;99.90
23815;DHT22;12088;53.078;8.720;2022-12-18T10:03:53;-2.70;99.90
23815;DHT22;12088;53.078;8.720;2022-12-18T10:06:21;-2.90;99.90
23815;DHT22;12088;53.078;8.720;2022-12-18T10:08:59;-2.70;99.90
23815;DHT22;12088;53.078;8.720;2022-12-18T10:14:23;-2.70;99.90
23815;DHT22;12088;53.078;8.720;2022-12-18T10:17:14;-2.30;99.90
23815;DHT22;12088;53.078;8.720;2022-12-18T10:19:50;-1.70;99.90
23815;DHT22;12088;53.078;8.720;2022-12-18T10:27:30;-2.00;99.90
23815;DHT22;12088;53.078;8.720;2022-12-18T10:29:57;-1.60;99.90
23815;DHT22;12088;53.078;8.720;2022-12-18T10:32:28;-1.50;99.90
23815;DHT22;12088;53.078;8.720;2022-12-18T10:34:56;-1.20;99.90
23815;DHT22;12088;53.078;8.720;2022-12-18T10:37:25;-1.00;99.90
23815;DHT22;12088;53.078;8.720;2022-12-18T10:40:07;-1.00;99.90
23815;DHT22;12088;53.078;8.720;2022-12-18T10:42:33;-1.40;99.90
23815;DHT22;12088;53.078;8.720;2022-12-18T10:45:11;-1.50;99.90
23815;DHT22;12088;53.078;8.720;2022-12-18T10:47:46;-1.80;99.90
23815;DHT22;12088;53.078;8.720;2022-12-18T10:50:26;-2.00;99.90
23815;DHT22;12088;53.078;8.720;2022-12-18T10:52:59;-2.00;99.90
23815;DHT22;12088;53.078;8.720;2022-12-18T10:55:30;-2.30;99.90
23815;DHT22;12088;53.078;8.720;2022-12-18T10:58:13;-2.10;99.90
23815;DHT22;12088;53.078;8.720;2022-12-18T11:00:41;-2.00;99.90
23815;DHT22;12088;53.078;8.720;2022-12-18T11:03:29;-2.20;99.90
23815;DHT22;12088;53.078;8.720;2022-12-18T11:06:02;-2.30;99.90
23815;DHT22;12088;53.078;8.720;2022-12-18T11:08:28;-2.30;99.90
23815;DHT22;12088;53.078;8.720;2022-12-18T11:10:54;-1.90;99.90
23815;DHT22;12088;53.078;8.720;2022-12-18T11:13:22;-1.70;99.90
23815;DHT22;12088;53.078;8.720;2022-12-18T11:15:49;-1.30;99.90
23815;DHT22;12088;53.078;8.720;2022-12-18T11:18:22;-1.00;99.90
23815;DHT22;12088;53.078;8.720;2022-12-18T11:21:08;-0.90;99.90
23815;DHT22;12088;53.078;8.720;2022-12-18T11:23:35;-0.60;99.90
23815;DHT22;12088;53.078;8.720;2022-12-18T11:26:03;-0.50;99.90
23815;DHT22;12088;53.078;8.720;2022-12-18T11:28:49;-0.90;99.90
23815;DHT22;12088;53.078;8.720;2022-12-18T11:31:28;-0.80;99.90
23815;DHT22;12088;53.078;8.720;2022-12-18T11:34:05;-0.30;99.90
23815;DHT22;12088;53.078;8.720;2022-12-18T11:36:38;-0.30;99.90
23815;DHT22;12088;53.078;8.720;2022-12-18T11:44:48;0.80;99.90
23815;DHT22;12088;53.078;8.720;2022-12-18T11:47:37;0.90;99.90
23815;DHT22;12088;53.078;8.720;2022-12-18T11:50:18;0.80;99.90
23815;DHT22;12088;53.078;8.720;2022-12-18T11:52:44;0.30;99.90
23815;DHT22;12088;53.078;8.720;2022-12-18T11:55:15;0.20;99.90
23815;DHT22;12088;53.078;8.720;2022-12-18T11:57:55;0.10;99.90
23815;DHT22;12088;53.078;8.720;2022-12-18T12:00:25;-0.40;99.90
23815;DHT22;12088;53.078;8.720;2022-12-18T12:05:39;-0.30;99.90
23815;DHT22;12088;53.078;8.720;2022-12-18T12:17:11;-0.90;99.90
23815;DHT22;12088;53.078;8.720;2022-12-18T12:20:16;-0.90;99.90
23815;DHT22;12088;53.078;8.720;2022-12-18T12:23:30;-1.10;99.90
23815;DHT22;12088;53.078;8.720;2022-12-18T12:26:11;-1.20;99.90
23815;DHT22;12088;53.078;8.720;2022-12-18T12:37:15;-1.40;99.90
23815;DHT22;12088;53.078;8.720;2022-12-18T12:39:46;-1.50;99.90
23815;DHT22;12088;53.078;8.720;2022-12-18T12:42:20;-1.30;99.90
23815;DHT22;12088;53.078;8.720;2022-12-18T12:45:16;-1.30;99.90
23815;DHT22;12088;53.078;8.720;2022-12-18T12:47:44;-1.30;99.90
23815;DHT22;12088;53.078;8.720;2022-12-18T12:50:17;-1.40;99.90
23815;DHT22;12088;53.078;8.720;2022-12-18T12:52:52;-1.40;99.90
23815;DHT22;12088;53.078;8.720;2022-12-18T12:55:22;-1.50;99.90
23815;DHT22;12088;53.078;8.720;2022-12-18T13:00:54;-1.40;99.90
23815;DHT22;12088;53.078;8.720;2022-12-18T13:03:35;-1.50;99.90
23815;DHT22;12088;53.078;8.720;2022-12-18T13:06:53;-1.50;99.90
23815;DHT22;12088;53.078;8.720;2022-12-18T13:08:59;-1.60;99.90
23815;DHT22;12088;53.078;8.720;2022-12-18T13:11:44;-1.50;99.90
23815;DHT22;12088;53.078;8.720;2022-12-18T13:14:40;-1.60;99.90
23815;DHT22;12088;53.078;8.720;2022-12-18T13:19:51;-1.60;99.90
23815;DHT22;12088;53.078;8.720;2022-12-18T13:22:25;-1.60;99.90
23815;DHT22;12088;53.078;8.720;2022-12-18T13:24:53;-1.60;99.90
23815;DHT22;12088;53.078;8.720;2022-12-18T13:28:08;-1.50;99.90
23815;DHT22;12088;53.078;8.720;2022-12-18T13:38:36;-1.50;99.90
23815;DHT22;12088;53.078;8.720;2022-12-18T13:41:22;-1.50;99.90
23815;DHT22;12088;53.078;8.720;2022-12-18T13:43:55;-1.50;99.90
23815;DHT22;12088;53.078;8.720;2022-12-18T13:46:45;-1.60;99.90
23815;DHT22;12088;53.078;8.720;2022-12-18T13:51:48;-1.60;99.90
23815;DHT22;12088;53.078;8.720;2022-12-18T13:54:33;-1.60;99.90
23815;DHT22;12088;53.078;8.720;2022-12-18T13:57:00;-1.60;99.90
23815;DHT22;12088;53.078;8.720;2022-12-18T13:59:36;-1.50;99.90
23815;DHT22;12088;53.078;8.720;2022-12-18T14:02:14;-1.50;99.90
23815;DHT22;12088;53.078;8.720;2022-12-18T14:04:40;-1.50;99.90
23815;DHT22;12088;53.078;8.720;2022-12-18T14:07:14;-1.60;99.90
23815;DHT22;12088;53.078;8.720;2022-12-18T14:09:43;-1.50;99.90
23815;DHT22;12088;53.078;8.720;2022-12-18T14:12:17;-1.50;99.90
23815;DHT22;12088;53.078;8.720;2022-12-18T14:15:03;-1.50;99.90
23815;DHT22;12088;53.078;8.720;2022-12-18T14:17:31;-1.50;99.90
23815;DHT22;12088;53.078;8.720;2022-12-18T14:19:57;-1.50;99.90
23815;DHT22;12088;53.078;8.720;2022-12-18T14:22:25;-1.50;99.90
23815;DHT22;12088;53.078;8.720;2022-12-18T14:27:41;-1.60;99.90
23815;DHT22;12088;53.078;8.720;2022-12-18T14:33:12;-1.60;99.90
23815;DHT22;12088;53.078;8.720;2022-12-18T14:35:52;-1.60;99.90
23815;DHT22;12088;53.078;8.720;2022-12-18T14:38:31;-1.50;99.90
23815;DHT22;12088;53.078;8.720;2022-12-18T14:41:03;-1.50;99.90
23815;DHT22;12088;53.078;8.720;2022-12-18T14:43:34;-1.50;99.90
23815;DHT22;12088;53.078;8.720;2022-12-18T14:46:01;-1.50;99.90
23815;DHT22;12088;53.078;8.720;2022-12-18T14:48:41;-1.50;99.90
23815;DHT22;12088;53.078;8.720;2022-12-18T14:53:42;-1.50;99.90
23815;DHT22;12088;53.078;8.720;2022-12-18T14:56:19;-1.50;99.90
23815;DHT22;12088;53.078;8.720;2022-12-18T14:58:52;-1.50;99.90
23815;DHT22;12088;53.078;8.720;2022-12-18T15:01:24;-1.60;99.90
23815;DHT22;12088;53.078;8.720;2022-12-18T15:03:51;-1.60;99.90
23815;DHT22;12088;53.078;8.720;2022-12-18T15:08:49;-1.60;99.90
23815;DHT22;12088;53.078;8.720;2022-12-18T15:13:51;-1.60;99.90
23815;DHT22;12088;53.078;8.720;2022-12-18T15:16:17;-1.70;99.90
23815;DHT22;12088;53.078;8.720;2022-12-18T15:18:43;-1.80;99.90
23815;DHT22;12088;53.078;8.720;2022-12-18T15:21:16;-1.70;99.90
23815;DHT22;12088;53.078;8.720;2022-12-18T15:23:50;-1.70;99.90
23815;DHT22;12088;53.078;8.720;2022-12-18T15:26:21;-1.60;99.90
23815;DHT22;12088;53.078;8.720;2022-12-18T15:28:55;-1.70;99.90
23815;DHT22;12088;53.078;8.720;2022-12-18T15:31:24;-1.60;99.90
23815;DHT22;12088;53.078;8.720;2022-12-18T15:36:20;-1.60;99.90
23815;DHT22;12088;53.078;8.720;2022-12-18T15:38:48;-1.60;99.90
23815;DHT22;12088;53.078;8.720;2022-12-18T15:41:15;-1.60;99.90
23815;DHT22;12088;53.078;8.720;2022-12-18T15:43:41;-1.60;99.90
23815;DHT22;12088;53.078;8.720;2022-12-18T15:48:45;-1.60;99.90
23815;DHT22;12088;53.078;8.720;2022-12-18T15:51:23;-1.60;99.90
23815;DHT22;12088;53.078;8.720;2022-12-18T15:53:52;-1.60;99.90
23815;DHT22;12088;53.078;8.720;2022-12-18T15:56:19;-1.50;99.90
23815;DHT22;12088;53.078;8.720;2022-12-18T15:59:10;-1.50;99.90
23815;DHT22;12088;53.078;8.720;2022-12-18T16:01:36;-1.50;99.90
23815;DHT22;12088;53.078;8.720;2022-12-18T16:04:01;-1.50;99.90
23815;DHT22;12088;53.078;8.720;2022-12-18T16:06:27;-1.50;99.90
23815;DHT22;12088;53.078;8.720;2022-12-18T16:08:52;-1.50;99.90
23815;DHT22;12088;53.078;8.720;2022-12-18T16:11:29;-1.40;99.90
23815;DHT22;12088;53.078;8.720;2022-12-18T16:14:21;-1.50;99.90
23815;DHT22;12088;53.078;8.720;2022-12-18T16:16:53;-1.50;99.90
23815;DHT22;12088;53.078;8.720;2022-12-18T16:19:18;-1.50;99.90
23815;DHT22;12088;53.078;8.720;2022-12-18T16:21:45;-1.50;99.90
23815;DHT22;12088;53.078;8.720;2022-12-18T16:24:19;-1.50;99.90
23815;DHT22;12088;53.078;8.720;2022-12-18T16:26:45;-1.50;99.90
23815;DHT22;12088;53.078;8.720;2022-12-18T16:29:11;-1.50;99.90
23815;DHT22;12088;53.078;8.720;2022-12-18T16:31:37;-1.50;99.90
23815;DHT22;12088;53.078;8.720;2022-12-18T16:34:23;-1.50;99.90
23815;DHT22;12088;53.078;8.720;2022-12-18T16:36:52;-1.50;99.90
23815;DHT22;12088;53.078;8.720;2022-12-18T16:39:19;-1.50;99.90
23815;DHT22;12088;53.078;8.720;2022-12-18T16:41:45;-1.60;99.90
23815;DHT22;12088;53.078;8.720;2022-12-18T16:44:12;-1.60;99.90
23815;DHT22;12088;53.078;8.720;2022-12-18T16:46:39;-1.60;99.90
23815;DHT22;12088;53.078;8.720;2022-12-18T16:49:08;-1.70;99.90
23815;DHT22;12088;53.078;8.720;2022-12-18T16:51:34;-1.70;99.90
23815;DHT22;12088;53.078;8.720;2022-12-18T16:54:00;-1.70;99.90
23815;DHT22;12088;53.078;8.720;2022-12-18T16:56:26;-1.80;99.90
23815;DHT22;12088;53.078;8.720;2022-12-18T16:58:53;-1.70;99.90
23815;DHT22;12088;53.078;8.720;2022-12-18T17:01:19;-1.70;99.90
23815;DHT22;12088;53.078;8.720;2022-12-18T17:03:51;-1.70;99.90
23815;DHT22;12088;53.078;8.720;2022-12-18T17:06:17;-1.70;99.90
23815;DHT22;12088;53.078;8.720;2022-12-18T17:08:42;-1.70;99.90
23815;DHT22;12088;53.078;8.720;2022-12-18T17:11:08;-1.70;99.90